HAZ8068 ZUUU-ZSHC
Flight info
| Callsign | HAZ8068 |
|---|---|
| Flight time | N/A |
| Altitude | 35100 |
| Route | ATVAX W234 P611 H134 P448 H35 DYG W138 RUKLI H166 P645 H160 P473 H26 TXN G204 OREXA |
| Aircraft | A320/M-SDE3FGHIRWY/LB1 |
Departure
| Time | N/A |
|---|---|
| Airport | Chengdu Shuangliu International Airport (ZUUU) |
Arrival
| Time | 2026-04-27 11:42 |
|---|---|
| Airport | Hangzhou Xiaoshan International Airport (ZSHC) |
| Time | Latitude | Longitude | Altitude | Speed | Heading |
|---|---|---|---|---|---|
| 2026-04-27 10:35 | 28.24114 | 111.90675 | 34987 ft | 490 kts | 125° |
| 2026-04-27 10:35 | 28.22252 | 111.93913 | 34984 ft | 490 kts | 125° |
| 2026-04-27 10:35 | 28.18526 | 112.00388 | 34985 ft | 490 kts | 125° |
| 2026-04-27 10:36 | 28.14793 | 112.06859 | 34985 ft | 491 kts | 125° |
| 2026-04-27 10:36 | 28.11057 | 112.13331 | 34986 ft | 491 kts | 125° |
| 2026-04-27 10:37 | 28.07325 | 112.19812 | 34985 ft | 491 kts | 125° |
| 2026-04-27 10:37 | 28.03586 | 112.26289 | 34985 ft | 492 kts | 125° |
| 2026-04-27 10:38 | 28.00112 | 112.32951 | 34992 ft | 494 kts | 114° |
| 2026-04-27 10:38 | 27.98342 | 112.40455 | 34994 ft | 496 kts | 96° |
| 2026-04-27 10:39 | 27.97854 | 112.48240 | 34990 ft | 497 kts | 94° |
| 2026-04-27 10:39 | 27.97368 | 112.55981 | 34989 ft | 497 kts | 94° |
| 2026-04-27 10:40 | 27.96870 | 112.63778 | 34986 ft | 497 kts | 94° |
| 2026-04-27 10:40 | 27.96376 | 112.71575 | 34992 ft | 497 kts | 94° |
| 2026-04-27 10:41 | 27.95886 | 112.79375 | 34991 ft | 497 kts | 94° |
| 2026-04-27 10:41 | 27.95384 | 112.87183 | 34991 ft | 498 kts | 94° |
| 2026-04-27 10:42 | 27.94912 | 112.94993 | 34993 ft | 498 kts | 90° |
| 2026-04-27 10:42 | 27.95593 | 113.02759 | 34996 ft | 497 kts | 81° |
| 2026-04-27 10:43 | 27.96596 | 113.10488 | 34993 ft | 497 kts | 81° |
| 2026-04-27 10:43 | 27.97588 | 113.18229 | 34992 ft | 497 kts | 81° |
| 2026-04-27 10:44 | 27.98569 | 113.25976 | 34996 ft | 498 kts | 81° |
| 2026-04-27 10:44 | 27.99548 | 113.33723 | 35001 ft | 498 kts | 81° |
| 2026-04-27 10:45 | 28.00533 | 113.41476 | 35006 ft | 498 kts | 81° |
| 2026-04-27 10:45 | 28.01506 | 113.49232 | 35021 ft | 498 kts | 81° |
| 2026-04-27 10:46 | 28.02474 | 113.56991 | 35021 ft | 498 kts | 81° |
| 2026-04-27 10:46 | 28.03443 | 113.64746 | 35024 ft | 498 kts | 81° |
| 2026-04-27 10:47 | 28.04414 | 113.72502 | 35024 ft | 498 kts | 81° |
| 2026-04-27 10:47 | 28.05374 | 113.80258 | 35022 ft | 498 kts | 81° |
| 2026-04-27 10:48 | 28.06323 | 113.88022 | 35019 ft | 498 kts | 81° |
| 2026-04-27 10:48 | 28.07270 | 113.95790 | 35015 ft | 498 kts | 81° |
| 2026-04-27 10:49 | 28.08212 | 114.03562 | 35019 ft | 498 kts | 81° |
| 2026-04-27 10:49 | 28.09158 | 114.11333 | 35019 ft | 498 kts | 81° |
| 2026-04-27 10:50 | 28.10092 | 114.19049 | 35020 ft | 498 kts | 81° |
| 2026-04-27 10:50 | 28.11018 | 114.26825 | 35012 ft | 498 kts | 81° |
| 2026-04-27 10:51 | 28.11941 | 114.34605 | 35012 ft | 498 kts | 81° |
| 2026-04-27 10:51 | 28.12977 | 114.42363 | 35019 ft | 498 kts | 79° |
| 2026-04-27 10:52 | 28.14144 | 114.50101 | 35015 ft | 498 kts | 79° |
| 2026-04-27 10:52 | 28.15304 | 114.57838 | 35004 ft | 498 kts | 79° |
| 2026-04-27 10:53 | 28.16953 | 114.69470 | 34991 ft | 498 kts | 80° |
| 2026-04-27 10:54 | 28.18035 | 114.77229 | 34985 ft | 499 kts | 80° |
| 2026-04-27 10:54 | 28.19130 | 114.84987 | 34987 ft | 499 kts | 80° |
| 2026-04-27 10:55 | 28.20220 | 114.92756 | 34989 ft | 499 kts | 80° |
| 2026-04-27 10:55 | 28.21302 | 115.00521 | 34990 ft | 499 kts | 80° |
| 2026-04-27 10:56 | 28.22381 | 115.08292 | 34981 ft | 499 kts | 80° |
| 2026-04-27 10:56 | 28.23450 | 115.16017 | 34980 ft | 499 kts | 80° |
| 2026-04-27 10:57 | 28.24523 | 115.23797 | 34998 ft | 499 kts | 80° |
| 2026-04-27 10:57 | 28.25582 | 115.31580 | 34988 ft | 499 kts | 80° |
| 2026-04-27 10:58 | 28.26637 | 115.39360 | 34985 ft | 499 kts | 80° |
| 2026-04-27 10:58 | 28.27695 | 115.47141 | 34982 ft | 499 kts | 80° |
| 2026-04-27 10:59 | 28.28748 | 115.54928 | 34978 ft | 499 kts | 80° |
| 2026-04-27 10:59 | 28.29799 | 115.62713 | 34983 ft | 499 kts | 81° |
| 2026-04-27 11:00 | 28.31361 | 115.74401 | 34969 ft | 500 kts | 81° |
| 2026-04-27 11:00 | 28.32404 | 115.82200 | 34975 ft | 500 kts | 81° |
| 2026-04-27 11:01 | 28.33603 | 115.89972 | 34970 ft | 499 kts | 73° |
| 2026-04-27 11:01 | 28.35380 | 115.97587 | 34983 ft | 499 kts | 73° |
| 2026-04-27 11:02 | 28.37768 | 116.04957 | 34974 ft | 498 kts | 65° |
| 2026-04-27 11:02 | 28.40426 | 116.12218 | 34970 ft | 498 kts | 65° |
| 2026-04-27 11:03 | 28.43071 | 116.19498 | 34973 ft | 499 kts | 65° |
| 2026-04-27 11:03 | 28.45715 | 116.26783 | 34974 ft | 499 kts | 65° |
| 2026-04-27 11:04 | 28.48343 | 116.34020 | 34974 ft | 499 kts | 65° |
| 2026-04-27 11:04 | 28.50991 | 116.41319 | 34981 ft | 499 kts | 65° |
| 2026-04-27 11:05 | 28.53635 | 116.48619 | 34988 ft | 499 kts | 65° |
| 2026-04-27 11:05 | 28.56277 | 116.55925 | 34990 ft | 499 kts | 65° |
| 2026-04-27 11:06 | 28.58914 | 116.63233 | 34992 ft | 499 kts | 65° |
| 2026-04-27 11:06 | 28.61541 | 116.70540 | 34999 ft | 499 kts | 66° |
| 2026-04-27 11:07 | 28.64160 | 116.77859 | 34997 ft | 499 kts | 66° |
| 2026-04-27 11:07 | 28.66778 | 116.85177 | 34997 ft | 499 kts | 66° |
| 2026-04-27 11:08 | 28.69396 | 116.92500 | 35008 ft | 499 kts | 65° |
| 2026-04-27 11:08 | 28.71569 | 116.98596 | 35000 ft | 500 kts | 65° |
| 2026-04-27 11:09 | 28.74628 | 117.07183 | 34997 ft | 500 kts | 66° |
| 2026-04-27 11:09 | 28.76795 | 117.13292 | 35002 ft | 501 kts | 66° |
| 2026-04-27 11:10 | 28.79406 | 117.20651 | 35001 ft | 501 kts | 66° |
| 2026-04-27 11:10 | 28.82598 | 117.27633 | 35005 ft | 494 kts | 49° |
| 2026-04-27 11:11 | 28.87440 | 117.33027 | 35016 ft | 483 kts | 30° |
| 2026-04-27 11:11 | 28.93361 | 117.36357 | 35012 ft | 471 kts | 14° |
| 2026-04-27 11:12 | 28.99557 | 117.38814 | 35005 ft | 472 kts | 14° |
| 2026-04-27 11:12 | 29.05760 | 117.41287 | 35005 ft | 472 kts | 14° |
| 2026-04-27 11:13 | 29.11989 | 117.43654 | 35020 ft | 471 kts | 12° |
| 2026-04-27 11:13 | 29.18254 | 117.45846 | 35025 ft | 471 kts | 11° |
| 2026-04-27 11:14 | 29.24520 | 117.48032 | 35026 ft | 471 kts | 12° |
| 2026-04-27 11:14 | 29.30637 | 117.50793 | 35025 ft | 481 kts | 26° |
| 2026-04-27 11:15 | 29.33358 | 117.53060 | 35043 ft | 488 kts | 37° |
| 2026-04-27 11:15 | 29.35708 | 117.55890 | 35039 ft | 494 kts | 49° |
| 2026-04-27 11:15 | 29.37590 | 117.59205 | 35035 ft | 499 kts | 60° |
| 2026-04-27 11:15 | 29.39032 | 117.62832 | 35031 ft | 501 kts | 64° |
| 2026-04-27 11:16 | 29.41831 | 117.70154 | 35022 ft | 501 kts | 64° |
| 2026-04-27 11:16 | 29.44635 | 117.77481 | 35025 ft | 502 kts | 64° |
| 2026-04-27 11:17 | 29.47433 | 117.84824 | 35013 ft | 503 kts | 64° |
| 2026-04-27 11:17 | 29.48833 | 117.88513 | 34476 ft | 504 kts | 64° |
| 2026-04-27 11:17 | 29.50231 | 117.92200 | 33909 ft | 504 kts | 64° |
| 2026-04-27 11:18 | 29.51617 | 117.95846 | 33261 ft | 505 kts | 64° |
| 2026-04-27 11:18 | 29.53063 | 117.99526 | 32635 ft | 505 kts | 60° |
| 2026-04-27 11:18 | 29.54865 | 118.02969 | 32008 ft | 502 kts | 51° |
| 2026-04-27 11:18 | 29.57058 | 118.06066 | 31396 ft | 498 kts | 42° |
| 2026-04-27 11:19 | 29.59496 | 118.08893 | 30790 ft | 499 kts | 41° |
| 2026-04-27 11:19 | 29.61954 | 118.11728 | 30205 ft | 501 kts | 41° |
| 2026-04-27 11:19 | 29.64416 | 118.14576 | 29564 ft | 503 kts | 41° |
| 2026-04-27 11:19 | 29.66876 | 118.17436 | 28897 ft | 504 kts | 41° |
| 2026-04-27 11:20 | 29.69256 | 118.20412 | 28256 ft | 508 kts | 49° |
| 2026-04-27 11:20 | 29.71143 | 118.23870 | 27621 ft | 513 kts | 62° |
| 2026-04-27 11:20 | 29.72397 | 118.27723 | 27020 ft | 517 kts | 75° |
| 2026-04-27 11:20 | 29.72943 | 118.31817 | 26621 ft | 520 kts | 87° |
| 2026-04-27 11:21 | 29.72808 | 118.35969 | 26264 ft | 521 kts | 96° |
| 2026-04-27 11:21 | 29.72455 | 118.40122 | 25897 ft | 522 kts | 96° |
| 2026-04-27 11:21 | 29.72093 | 118.44279 | 25536 ft | 522 kts | 96° |
| 2026-04-27 11:21 | 29.71722 | 118.48438 | 25191 ft | 523 kts | 96° |
| 2026-04-27 11:22 | 29.71346 | 118.52598 | 24778 ft | 523 kts | 96° |
| 2026-04-27 11:22 | 29.70968 | 118.56762 | 24369 ft | 524 kts | 96° |
| 2026-04-27 11:22 | 29.70591 | 118.60931 | 23965 ft | 524 kts | 96° |
| 2026-04-27 11:22 | 29.70213 | 118.65086 | 23570 ft | 522 kts | 96° |
| 2026-04-27 11:23 | 29.69835 | 118.69223 | 23104 ft | 519 kts | 96° |
| 2026-04-27 11:23 | 29.69460 | 118.73340 | 22636 ft | 516 kts | 96° |
| 2026-04-27 11:23 | 29.69090 | 118.77438 | 22177 ft | 513 kts | 96° |
| 2026-04-27 11:23 | 29.68723 | 118.81504 | 21721 ft | 510 kts | 96° |
| 2026-04-27 11:24 | 29.68356 | 118.85545 | 21276 ft | 508 kts | 97° |
| 2026-04-27 11:24 | 29.67988 | 118.89564 | 20836 ft | 504 kts | 97° |
| 2026-04-27 11:24 | 29.67620 | 118.93555 | 20396 ft | 500 kts | 97° |
| 2026-04-27 11:24 | 29.67261 | 118.97461 | 19972 ft | 497 kts | 97° |
| 2026-04-27 11:25 | 29.66899 | 119.01401 | 19548 ft | 494 kts | 97° |
| 2026-04-27 11:25 | 29.66541 | 119.05312 | 19132 ft | 490 kts | 97° |
| 2026-04-27 11:25 | 29.66402 | 119.09216 | 18720 ft | 488 kts | 89° |
| 2026-04-27 11:25 | 29.66737 | 119.13087 | 18299 ft | 486 kts | 80° |
| 2026-04-27 11:26 | 29.67542 | 119.16846 | 17854 ft | 482 kts | 71° |
| 2026-04-27 11:26 | 29.68786 | 119.20401 | 17391 ft | 477 kts | 62° |
| 2026-04-27 11:26 | 29.70428 | 119.23691 | 16950 ft | 473 kts | 54° |
| 2026-04-27 11:26 | 29.72328 | 119.26761 | 16480 ft | 469 kts | 52° |
| 2026-04-27 11:27 | 29.74220 | 119.29803 | 16030 ft | 465 kts | 52° |
| 2026-04-27 11:27 | 29.76093 | 119.32827 | 15599 ft | 463 kts | 53° |
| 2026-04-27 11:27 | 29.77950 | 119.35838 | 15153 ft | 459 kts | 53° |
| 2026-04-27 11:27 | 29.79791 | 119.38825 | 14731 ft | 456 kts | 53° |
| 2026-04-27 11:28 | 29.81622 | 119.41791 | 14318 ft | 452 kts | 53° |
| 2026-04-27 11:28 | 29.83437 | 119.44728 | 13902 ft | 449 kts | 53° |
| 2026-04-27 11:28 | 29.85245 | 119.47654 | 13452 ft | 447 kts | 53° |
| 2026-04-27 11:28 | 29.87040 | 119.50562 | 12970 ft | 444 kts | 53° |
| 2026-04-27 11:29 | 29.88813 | 119.53438 | 12525 ft | 437 kts | 54° |
| 2026-04-27 11:29 | 29.90559 | 119.56269 | 12067 ft | 429 kts | 54° |
| 2026-04-27 11:29 | 29.92265 | 119.59035 | 11659 ft | 417 kts | 54° |
| 2026-04-27 11:29 | 29.93920 | 119.61720 | 11295 ft | 405 kts | 54° |
| 2026-04-27 11:30 | 29.95526 | 119.64326 | 10938 ft | 393 kts | 54° |
| 2026-04-27 11:30 | 29.97086 | 119.66862 | 10582 ft | 382 kts | 54° |
| 2026-04-27 11:30 | 29.98599 | 119.69327 | 10226 ft | 372 kts | 55° |
| 2026-04-27 11:30 | 30.00073 | 119.71730 | 9875 ft | 362 kts | 55° |
| 2026-04-27 11:31 | 30.01508 | 119.74073 | 9497 ft | 353 kts | 55° |
| 2026-04-27 11:31 | 30.02912 | 119.76362 | 9105 ft | 346 kts | 55° |
| 2026-04-27 11:31 | 30.04136 | 119.78709 | 8730 ft | 338 kts | 63° |
| 2026-04-27 11:31 | 30.05207 | 119.81098 | 8357 ft | 332 kts | 63° |
| 2026-04-27 11:32 | 30.06261 | 119.83441 | 8000 ft | 326 kts | 63° |
| 2026-04-27 11:32 | 30.07300 | 119.85741 | 7659 ft | 320 kts | 63° |
| 2026-04-27 11:32 | 30.08321 | 119.87998 | 7316 ft | 314 kts | 63° |
| 2026-04-27 11:32 | 30.09319 | 119.90215 | 6980 ft | 309 kts | 63° |
| 2026-04-27 11:33 | 30.10300 | 119.92397 | 6651 ft | 303 kts | 63° |
| 2026-04-27 11:33 | 30.11265 | 119.94537 | 6317 ft | 298 kts | 63° |
| 2026-04-27 11:33 | 30.12212 | 119.96643 | 5997 ft | 292 kts | 62° |
| 2026-04-27 11:33 | 30.13127 | 119.98679 | 5837 ft | 280 kts | 62° |
| 2026-04-27 11:34 | 30.13988 | 120.00607 | 5702 ft | 268 kts | 63° |
| 2026-04-27 11:34 | 30.14820 | 120.02511 | 5575 ft | 256 kts | 66° |
| 2026-04-27 11:34 | 30.15086 | 120.04440 | 5450 ft | 244 kts | 98° |
| 2026-04-27 11:34 | 30.14424 | 120.06184 | 5328 ft | 236 kts | 131° |
| 2026-04-27 11:35 | 30.13114 | 120.07249 | 5225 ft | 228 kts | 153° |
| 2026-04-27 11:35 | 30.11769 | 120.08144 | 5131 ft | 218 kts | 137° |
| 2026-04-27 11:35 | 30.10932 | 120.09534 | 5035 ft | 209 kts | 108° |
| 2026-04-27 11:35 | 30.10780 | 120.11168 | 4938 ft | 205 kts | 79° |
| 2026-04-27 11:36 | 30.11274 | 120.12695 | 4839 ft | 203 kts | 62° |
| 2026-04-27 11:36 | 30.11910 | 120.14105 | 4791 ft | 196 kts | 62° |
| 2026-04-27 11:36 | 30.12537 | 120.15499 | 4615 ft | 195 kts | 62° |
| 2026-04-27 11:36 | 30.13156 | 120.16882 | 4366 ft | 193 kts | 62° |
| 2026-04-27 11:37 | 30.13769 | 120.18254 | 4115 ft | 191 kts | 62° |
| 2026-04-27 11:37 | 30.14378 | 120.19618 | 3878 ft | 191 kts | 62° |
| 2026-04-27 11:37 | 30.14985 | 120.20978 | 3638 ft | 190 kts | 62° |
| 2026-04-27 11:37 | 30.15591 | 120.22336 | 3392 ft | 190 kts | 62° |
| 2026-04-27 11:38 | 30.16192 | 120.23685 | 3147 ft | 188 kts | 62° |
| 2026-04-27 11:38 | 30.16791 | 120.25028 | 2909 ft | 187 kts | 62° |
| 2026-04-27 11:38 | 30.17386 | 120.26363 | 2666 ft | 186 kts | 62° |
| 2026-04-27 11:38 | 30.17971 | 120.27677 | 2422 ft | 182 kts | 62° |
| 2026-04-27 11:39 | 30.18540 | 120.28956 | 2195 ft | 175 kts | 62° |
| 2026-04-27 11:39 | 30.19072 | 120.30151 | 2000 ft | 159 kts | 62° |
| 2026-04-27 11:39 | 30.19552 | 120.31229 | 1791 ft | 145 kts | 62° |
| 2026-04-27 11:39 | 30.20003 | 120.32242 | 1610 ft | 139 kts | 62° |
| 2026-04-27 11:40 | 30.20442 | 120.33229 | 1423 ft | 137 kts | 62° |
| 2026-04-27 11:40 | 30.20875 | 120.34204 | 1257 ft | 136 kts | 63° |
| 2026-04-27 11:40 | 30.21308 | 120.35177 | 1066 ft | 136 kts | 63° |
| 2026-04-27 11:40 | 30.21740 | 120.36149 | 909 ft | 135 kts | 64° |
| 2026-04-27 11:41 | 30.22169 | 120.37115 | 750 ft | 135 kts | 63° |
| 2026-04-27 11:41 | 30.22601 | 120.38087 | 575 ft | 136 kts | 63° |
| 2026-04-27 11:41 | 30.23033 | 120.39064 | 392 ft | 137 kts | 62° |
| 2026-04-27 11:41 | 30.23462 | 120.40024 | 233 ft | 136 kts | 64° |
| 2026-04-27 11:42 | 30.23903 | 120.41012 | 57 ft | 136 kts | 64° |
| 2026-04-27 11:42 | 30.24286 | 120.41884 | 32 ft | 104 kts | 63° |
| 2026-04-27 11:42 | 30.24539 | 120.42453 | 29 ft | 55 kts | 63° |
| 2026-04-27 11:42 | 30.24670 | 120.42750 | 29 ft | 26 kts | 64° |
| 2026-04-27 11:43 | 30.24718 | 120.42944 | 32 ft | 23 kts | 83° |
| 2026-04-27 11:43 | 30.24723 | 120.43070 | 33 ft | 14 kts | 89° |
| 2026-04-27 11:43 | 30.24703 | 120.43166 | 32 ft | 8 kts | 136° |
| 2026-04-27 11:43 | 30.24659 | 120.43157 | 32 ft | 6 kts | 231° |
| 2026-04-27 11:44 | 30.24640 | 120.43115 | 30 ft | 7 kts | 243° |
| 2026-04-27 11:44 | 30.24605 | 120.43036 | 32 ft | 13 kts | 243° |
| 2026-04-27 11:44 | 30.24561 | 120.42937 | 32 ft | 18 kts | 243° |
| 2026-04-27 11:44 | 30.24494 | 120.42787 | 32 ft | 20 kts | 243° |
| 2026-04-27 11:45 | 30.24406 | 120.42769 | 32 ft | 14 kts | 154° |
| 2026-04-27 11:45 | 30.24347 | 120.42800 | 32 ft | 13 kts | 162° |
| 2026-04-27 11:45 | 30.24240 | 120.42814 | 32 ft | 11 kts | 152° |
| 2026-04-27 11:45 | 30.24176 | 120.42851 | 31 ft | 9 kts | 153° |
| 2026-04-27 11:46 | 30.24136 | 120.42827 | 32 ft | 6 kts | 230° |
| 2026-04-27 11:46 | 30.24123 | 120.42806 | 32 ft | 2 kts | 234° |
| 2026-04-27 11:46 | 30.24121 | 120.42803 | 32 ft | 1 kts | 234° |
| 2026-04-27 11:46 | 30.24120 | 120.42801 | 32 ft | 0 kts | 234° |